Bayeux, Brazil
Current Conditions -  °F | °C
As of 3:00 PM on Friday 21 Nov 2014 (Local Time) from SBJP Reporting Station
Scattered Clouds Scattered Clouds  
Wind Chill: 84°   Ceiling: Unl
Heat Index: 86°   Visibility: 6mi
Dew Point: 64°   Wind: 15mph
Humidity: 51%   Direction: 100°E
Pressure: 29.88"   Gusts: NA
Location:  7.13°S, 34.93°W
Report Text: SBJP 211800Z 10013KT 070V130 9999 SCT033 29/18 Q1012
Loading
Personal Weather Stations






























Interactive Weather Map New forecast layout! Learn more

10-Day Weather Forecast

Advertisements
Track Severe Weather on mobile